Time;durP1;ratioP1;P1;durP2;ratioP2;P2;SDS_P1;SDS_P2;PMS_P1;PMS_P2;Temp;Humidity;BMP_temperature;BMP_pressure;BME280_temperature;BME280_humidity;BME280_pressure;Samples;Min_cycle;Max_cycle;Signal;HPM_P1;HPM_P2
2023/02/16 00:00:22;;;;;;;14.80;11.20;;;2.60;99.90;;;;;;5022463;28;20272;-65
2023/02/16 00:02:48;;;;;;;15.55;11.38;;;3.30;99.90;;;;;;5016059;28;20217;-65
2023/02/16 00:05:25;;;;;;;15.63;11.45;;;3.20;99.90;;;;;;5022393;28;20218;-65
2023/02/16 00:07:51;;;;;;;15.25;11.00;;;3.30;99.90;;;;;;5024158;28;20216;-65
2023/02/16 00:10:17;;;;;;;14.35;11.30;;;3.60;99.90;;;;;;5023952;28;20667;-65
2023/02/16 00:15:27;;;;;;;17.40;12.80;;;3.40;99.90;;;;;;5019375;28;20194;-66
2023/02/16 00:17:55;;;;;;;19.83;13.47;;;2.90;99.90;;;;;;5023616;28;20303;-65
2023/02/16 00:20:21;;;;;;;16.17;12.82;;;2.60;99.90;;;;;;5024263;28;20437;-65
2023/02/16 00:22:46;;;;;;;14.80;13.20;;;2.90;99.90;;;;;;5021374;28;20194;-65
2023/02/16 00:25:12;;;;;;;19.80;14.10;;;2.90;99.90;;;;;;5018721;28;20191;-65
2023/02/16 00:27:38;;;;;;;17.20;11.40;;;3.30;99.90;;;;;;5018875;28;20207;-65
2023/02/16 00:30:24;;;;;;;14.27;10.70;;;3.50;99.90;;;;;;5019332;28;20636;-65
2023/02/16 00:32:49;;;;;;;16.92;11.55;;;2.50;99.90;;;;;;5016303;28;20306;-65
2023/02/16 00:35:20;;;;;;;14.87;11.10;;;3.10;99.90;;;;;;5024003;28;20262;-66
2023/02/16 00:37:47;;;;;;;16.77;10.75;;;2.80;99.90;;;;;;5018810;28;20454;-65
2023/02/16 00:40:14;;;;;;;18.48;11.45;;;2.80;99.90;;;;;;5021171;28;20737;-65
2023/02/16 00:42:41;;;;;;;17.15;11.95;;;2.80;99.90;;;;;;5018120;28;20198;-65
2023/02/16 00:45:16;;;;;;;16.67;11.35;;;3.00;99.90;;;;;;5025438;28;20194;-65
2023/02/16 00:47:45;;;;;;;13.68;10.68;;;3.00;99.90;;;;;;5010205;28;20207;-67
2023/02/16 00:50:21;;;;;;;13.65;10.98;;;3.00;99.90;;;;;;5013235;28;20677;-65
2023/02/16 00:52:47;;;;;;;13.35;10.40;;;2.60;99.90;;;;;;5013867;28;20604;-65
2023/02/16 00:55:23;;;;;;;14.73;10.60;;;2.80;99.90;;;;;;5022469;28;20179;-65
2023/02/16 00:57:54;;;;;;;15.07;10.88;;;2.60;99.90;;;;;;5021097;28;20202;-65
2023/02/16 01:00:25;;;;;;;15.18;11.05;;;2.40;99.90;;;;;;5022664;28;20756;-65
2023/02/16 01:02:54;;;;;;;14.70;11.00;;;2.70;99.90;;;;;;5013060;28;20199;-65
2023/02/16 01:05:20;;;;;;;13.63;11.13;;;2.40;99.90;;;;;;5016643;28;20218;-65
2023/02/16 01:13:44;;;;;;;14.43;10.13;;;2.60;99.90;;;;;;4997376;28;20223;-65
2023/02/16 01:16:13;;;;;;;14.32;11.40;;;2.70;99.90;;;;;;4998807;28;20217;-65
2023/02/16 01:18:39;;;;;;;13.55;10.15;;;2.10;99.90;;;;;;5008812;28;20203;-65
2023/02/16 01:21:04;;;;;;;12.60;10.77;;;2.50;99.90;;;;;;5015414;28;20198;-65
2023/02/16 01:23:30;;;;;;;14.60;10.77;;;2.80;99.90;;;;;;5019477;28;20297;-65
2023/02/16 01:25:56;;;;;;;17.93;11.90;;;2.40;99.90;;;;;;5021623;28;20270;-65
2023/02/16 01:28:24;;;;;;;14.00;11.07;;;2.20;99.90;;;;;;5015860;28;20529;-65
2023/02/16 01:30:51;;;;;;;12.55;9.80;;;2.90;99.90;;;;;;5023842;28;20190;-65
2023/02/16 01:33:18;;;;;;;16.08;10.60;;;2.40;99.90;;;;;;5015106;28;20234;-65
2023/02/16 01:35:44;;;;;;;14.60;10.35;;;2.40;99.90;;;;;;5020939;28;20182;-65
2023/02/16 01:38:19;;;;;;;14.93;11.05;;;1.70;99.90;;;;;;5023361;28;20213;-65
2023/02/16 01:41:22;;;;;;;16.15;11.40;;;2.40;99.90;;;;;;5015603;28;20603;-65
2023/02/16 01:43:53;;;;;;;16.77;12.20;;;2.40;99.90;;;;;;5014289;28;20672;-65
2023/02/16 01:46:28;;;;;;;13.32;11.20;;;2.30;99.90;;;;;;5013484;28;20265;-65
2023/02/16 01:48:53;;;;;;;16.52;11.90;;;1.50;99.90;;;;;;5023770;28;20185;-65
2023/02/16 01:52:06;;;;;;;13.90;11.37;;;2.30;99.90;;;;;;5025978;28;20550;-65
2023/02/16 01:54:43;;;;;;;15.43;10.55;;;2.20;99.90;;;;;;5011076;28;20203;-65
2023/02/16 01:57:27;;;;;;;16.23;11.00;;;2.20;99.90;;;;;;5020723;28;20206;-65
2023/02/16 01:59:53;;;;;;;14.40;11.05;;;2.20;99.90;;;;;;5018762;28;20178;-65
2023/02/16 02:02:24;;;;;;;17.47;12.07;;;1.60;99.90;;;;;;5014755;28;20710;-65
2023/02/16 02:07:44;;;;;;;15.90;11.13;;;1.80;99.90;;;;;;5013757;28;20627;-65
2023/02/16 02:10:19;;;;;;;13.27;10.15;;;2.40;99.90;;;;;;5020745;28;20210;-65
2023/02/16 02:12:50;;;;;;;14.73;11.57;;;2.10;99.90;;;;;;5022447;28;20211;-65
2023/02/16 02:15:18;;;;;;;12.75;10.65;;;2.30;99.90;;;;;;5015895;28;20191;-65
2023/02/16 02:17:44;;;;;;;17.70;11.60;;;2.20;99.90;;;;;;5019144;28;20277;-65
2023/02/16 02:24:05;;;;;;;14.98;11.30;;;2.30;99.90;;;;;;5011595;28;20260;-65
2023/02/16 02:26:36;;;;;;;15.27;10.85;;;1.70;99.90;;;;;;5013522;28;20217;-65
2023/02/16 02:29:14;;;;;;;15.15;10.80;;;1.60;99.90;;;;;;5013762;28;20201;-65
2023/02/16 02:32:08;;;;;;;13.63;10.68;;;2.20;99.90;;;;;;5016222;28;20712;-65
2023/02/16 02:34:57;;;;;;;15.98;10.57;;;2.20;99.90;;;;;;5013541;28;20278;-65
2023/02/16 02:37:46;;;;;;;13.80;10.13;;;2.40;99.90;;;;;;5019787;28;20569;-65
2023/02/16 02:40:23;;;;;;;13.95;9.82;;;2.90;99.90;;;;;;5018241;28;20733;-65
2023/02/16 02:43:13;;;;;;;14.30;9.65;;;2.60;99.90;;;;;;5018135;28;20789;-65
2023/02/16 02:46:08;;;;;;;20.08;10.80;;;2.50;99.90;;;;;;5013320;28;20180;-65
2023/02/16 02:48:34;;;;;;;14.27;10.80;;;2.50;99.90;;;;;;5016192;28;20195;-65
2023/02/16 03:03:01;;;;;;;15.75;11.05;;;2.40;99.90;;;;;;5019188;28;20197;-65
2023/02/16 03:05:29;;;;;;;10.85;8.88;;;2.30;99.90;;;;;;5021892;28;20195;-65
2023/02/16 03:08:05;;;;;;;15.30;10.88;;;2.80;99.90;;;;;;5016667;28;20207;-65
2023/02/16 03:13:23;;;;;;;15.48;11.20;;;2.00;99.90;;;;;;5019721;28;20241;-65
2023/02/16 03:15:54;;;;;;;11.23;10.02;;;1.90;99.90;;;;;;5021417;28;20179;-65
2023/02/16 03:29:25;;;;;;;11.93;10.05;;;2.30;99.90;;;;;;5028205;28;20240;-65
2023/02/16 03:31:52;;;;;;;13.93;10.02;;;2.20;99.90;;;;;;5022549;28;20213;-65
2023/02/16 03:34:19;;;;;;;14.63;9.93;;;2.20;99.90;;;;;;5024863;28;20194;-65
2023/02/16 03:36:49;;;;;;;12.50;10.55;;;2.20;99.90;;;;;;5023717;28;20226;-65
2023/02/16 03:39:15;;;;;;;16.42;9.90;;;1.60;99.90;;;;;;5019254;28;20194;-65
2023/02/16 03:41:45;;;;;;;11.05;9.25;;;1.70;99.90;;;;;;5020931;28;20251;-65
2023/02/16 03:44:10;;;;;;;11.30;9.13;;;2.40;99.90;;;;;;5027357;28;20186;-65
2023/02/16 03:46:36;;;;;;;13.90;9.90;;;1.50;99.90;;;;;;5016322;28;20199;-65
2023/02/16 03:49:02;;;;;;;11.00;9.80;;;1.70;99.90;;;;;;5023463;28;20206;-65
2023/02/16 03:51:27;;;;;;;15.87;10.33;;;1.70;99.90;;;;;;5029118;28;20675;-65
2023/02/16 03:53:53;;;;;;;10.40;8.93;;;1.80;99.90;;;;;;5018600;28;20549;-65
2023/02/16 03:56:18;;;;;;;11.27;9.80;;;2.50;99.90;;;;;;5023523;28;20575;-65
2023/02/16 03:58:44;;;;;;;9.67;8.40;;;2.50;99.90;;;;;;5018223;28;20685;-65
2023/02/16 04:01:10;;;;;;;13.77;9.80;;;2.50;99.90;;;;;;5015485;28;20183;-65
2023/02/16 04:03:35;;;;;;;15.90;10.63;;;2.30;99.90;;;;;;5022984;28;20294;-65
2023/02/16 04:06:01;;;;;;;11.47;9.17;;;1.70;99.90;;;;;;5013658;28;20200;-65
2023/02/16 04:08:27;;;;;;;13.43;9.70;;;1.60;99.90;;;;;;5024559;28;20213;-65
2023/02/16 04:10:56;;;;;;;13.33;9.20;;;2.40;99.90;;;;;;5021568;28;20218;-65
2023/02/16 04:13:22;;;;;;;11.68;9.05;;;1.80;99.90;;;;;;5023734;28;20663;-65
2023/02/16 04:15:48;;;;;;;14.98;10.20;;;2.30;99.90;;;;;;5011430;28;20237;-65
2023/02/16 04:18:14;;;;;;;14.63;10.60;;;1.80;99.90;;;;;;5020643;28;20199;-65
2023/02/16 04:20:39;;;;;;;15.10;9.70;;;2.10;99.90;;;;;;5010844;28;20187;-65
2023/02/16 04:23:05;;;;;;;13.53;10.10;;;2.20;99.90;;;;;;5020702;28;20950;-65
2023/02/16 04:25:31;;;;;;;11.27;9.23;;;1.90;99.90;;;;;;5021369;28;20198;-65
2023/02/16 04:27:56;;;;;;;13.98;9.30;;;1.60;99.90;;;;;;5023272;28;20206;-64
2023/02/16 04:30:26;;;;;;;16.00;9.47;;;2.30;99.90;;;;;;5023225;28;20198;-66
2023/02/16 04:32:52;;;;;;;12.05;9.80;;;1.60;99.90;;;;;;5014846;28;20194;-66
2023/02/16 04:35:19;;;;;;;10.52;8.90;;;1.70;99.90;;;;;;5021346;28;20589;-64
2023/02/16 04:37:44;;;;;;;12.38;9.23;;;2.20;99.90;;;;;;5012864;28;20256;-64
2023/02/16 04:40:12;;;;;;;12.30;9.23;;;1.50;99.90;;;;;;5017850;28;20187;-64
2023/02/16 04:42:42;;;;;;;13.70;10.95;;;2.30;99.90;;;;;;5016657;28;20481;-66
2023/02/16 04:45:09;;;;;;;12.43;8.90;;;2.30;99.90;;;;;;5016684;28;20191;-64
2023/02/16 04:47:34;;;;;;;11.73;10.45;;;2.10;99.90;;;;;;5019343;28;20218;-65
2023/02/16 04:50:00;;;;;;;14.00;10.83;;;2.00;99.90;;;;;;5021392;28;20191;-66
2023/02/16 04:52:25;;;;;;;13.03;9.80;;;2.10;99.90;;;;;;5009674;28;20215;-64
2023/02/16 04:54:51;;;;;;;13.53;9.63;;;1.50;99.90;;;;;;5023014;28;20195;-66
2023/02/16 04:57:18;;;;;;;12.80;8.93;;;1.90;99.90;;;;;;5018203;28;20313;-64
2023/02/16 04:59:44;;;;;;;12.90;9.80;;;1.40;99.90;;;;;;5015460;28;20175;-64
2023/02/16 05:02:09;;;;;;;13.70;9.83;;;1.80;99.90;;;;;;5012711;28;20273;-64
2023/02/16 05:04:35;;;;;;;13.93;9.60;;;1.70;99.90;;;;;;5015805;28;20552;-64
2023/02/16 05:07:01;;;;;;;13.83;9.80;;;1.90;99.90;;;;;;5017638;28;20553;-66
2023/02/16 05:09:26;;;;;;;11.10;9.03;;;1.80;99.90;;;;;;5015907;28;20652;-64
2023/02/16 05:14:43;;;;;;;14.88;10.30;;;1.90;99.90;;;;;;5013384;28;20193;-66
2023/02/16 05:17:15;;;;;;;13.25;10.50;;;1.80;99.90;;;;;;5017151;28;20262;-66
2023/02/16 05:19:43;;;;;;;12.40;9.82;;;2.10;99.90;;;;;;5012511;28;20172;-66
2023/02/16 05:22:09;;;;;;;14.00;10.23;;;1.90;99.90;;;;;;5017707;28;20520;-66
2023/02/16 05:24:35;;;;;;;13.27;10.38;;;2.50;99.90;;;;;;5012714;28;20562;-64
2023/02/16 05:27:03;;;;;;;12.07;9.48;;;1.40;99.90;;;;;;5020472;28;20253;-64
2023/02/16 05:29:28;;;;;;;11.63;9.75;;;2.00;99.90;;;;;;5015670;28;20209;-65
2023/02/16 05:31:54;;;;;;;10.93;9.10;;;1.80;99.90;;;;;;5013518;28;20659;-64
2023/02/16 05:34:20;;;;;;;14.40;9.83;;;1.50;99.90;;;;;;5010025;28;20997;-64
2023/02/16 05:36:45;;;;;;;12.37;10.27;;;2.20;99.90;;;;;;5012008;28;20639;-64
2023/02/16 05:39:11;;;;;;;14.60;10.77;;;2.10;99.90;;;;;;5016998;28;20663;-64
2023/02/16 05:41:36;;;;;;;14.30;9.80;;;1.90;99.90;;;;;;5012064;28;20179;-64
2023/02/16 05:44:03;;;;;;;13.63;9.70;;;1.30;99.90;;;;;;5017677;28;20184;-64
2023/02/16 05:46:32;;;;;;;12.68;9.50;;;2.20;99.90;;;;;;5016426;28;20213;-64
2023/02/16 05:48:59;;;;;;;14.10;10.43;;;2.00;99.90;;;;;;5010852;28;20187;-64
2023/02/16 05:51:26;;;;;;;12.70;10.43;;;2.20;99.90;;;;;;5013121;28;20269;-65
2023/02/16 05:53:51;;;;;;;16.58;10.40;;;1.50;99.90;;;;;;5012192;28;20621;-64
2023/02/16 05:56:19;;;;;;;12.82;9.45;;;1.90;99.90;;;;;;5013295;28;20219;-64
2023/02/16 05:58:44;;;;;;;13.02;10.10;;;1.90;99.90;;;;;;5007164;28;20290;-63
2023/02/16 06:01:10;;;;;;;17.53;10.97;;;1.90;99.90;;;;;;5009749;28;20179;-63
2023/02/16 06:03:36;;;;;;;12.23;10.10;;;2.20;99.90;;;;;;5009760;28;20201;-63
2023/02/16 06:06:03;;;;;;;12.47;9.97;;;1.90;99.90;;;;;;5017720;28;20696;-63
2023/02/16 06:08:29;;;;;;;17.60;9.50;;;2.10;99.90;;;;;;5012195;28;20520;-65
2023/02/16 06:10:55;;;;;;;13.63;10.43;;;2.50;99.90;;;;;;5026053;28;20206;-65
2023/02/16 06:13:22;;;;;;;14.10;10.50;;;1.90;99.90;;;;;;5013022;28;20246;-64
2023/02/16 06:15:52;;;;;;;11.90;8.90;;;2.10;99.90;;;;;;5010698;28;20293;-64
2023/02/16 06:18:18;;;;;;;18.27;10.10;;;2.00;99.90;;;;;;5013188;28;20195;-65
2023/02/16 06:20:43;;;;;;;22.60;13.83;;;2.00;99.90;;;;;;5013774;28;20187;-65
2023/02/16 06:23:11;;;;;;;13.97;10.00;;;2.00;99.90;;;;;;5011824;28;20492;-65
2023/02/16 06:25:37;;;;;;;19.92;11.07;;;1.30;99.90;;;;;;5014536;28;20277;-65
2023/02/16 06:28:02;;;;;;;12.20;10.10;;;1.70;99.90;;;;;;5017318;28;20290;-65
2023/02/16 06:30:28;;;;;;;13.90;9.30;;;1.80;99.90;;;;;;5019486;28;20671;-65
2023/02/16 06:32:53;;;;;;;13.83;10.50;;;1.80;99.90;;;;;;5010806;28;20210;-65
2023/02/16 06:35:19;;;;;;;15.40;11.53;;;1.80;99.90;;;;;;5016087;28;20557;-65
2023/02/16 06:37:45;;;;;;;16.30;10.20;;;2.00;99.90;;;;;;5010700;28;20216;-65
2023/02/16 06:40:16;;;;;;;14.27;10.63;;;1.30;99.90;;;;;;5016550;28;20425;-65
2023/02/16 06:42:41;;;;;;;14.40;11.07;;;2.00;99.90;;;;;;5007884;28;20194;-65
2023/02/16 06:45:08;;;;;;;12.70;10.03;;;1.90;99.90;;;;;;5007015;28;20326;-66
2023/02/16 06:47:35;;;;;;;17.10;12.02;;;2.20;99.90;;;;;;5004020;28;20213;-65
2023/02/16 06:50:01;;;;;;;20.67;12.80;;;1.40;99.90;;;;;;5004145;28;20620;-66
2023/02/16 06:52:27;;;;;;;15.87;12.87;;;2.10;99.90;;;;;;5007845;28;20397;-65
2023/02/16 06:54:52;;;;;;;14.70;11.40;;;1.50;99.90;;;;;;5002606;28;20456;-65
2023/02/16 06:57:18;;;;;;;19.00;13.00;;;1.70;99.90;;;;;;5004412;28;20852;-64
2023/02/16 06:59:43;;;;;;;16.10;11.73;;;2.30;99.90;;;;;;5008698;28;20183;-64
2023/02/16 07:02:09;;;;;;;17.00;11.90;;;2.30;99.90;;;;;;5008151;28;20622;-64
2023/02/16 07:04:35;;;;;;;15.10;11.15;;;2.20;99.90;;;;;;5007110;28;20190;-65
2023/02/16 07:07:01;;;;;;;17.40;12.83;;;1.70;99.90;;;;;;5004884;28;21799;-65
2023/02/16 07:09:27;;;;;;;13.60;10.95;;;2.20;99.90;;;;;;5004501;28;20279;-65
2023/02/16 07:11:53;;;;;;;17.27;12.00;;;2.20;99.90;;;;;;5009461;28;20282;-65
2023/02/16 07:14:18;;;;;;;26.30;13.15;;;1.60;99.90;;;;;;5009217;28;20632;-65
2023/02/16 07:16:44;;;;;;;15.00;11.13;;;2.20;99.90;;;;;;5003138;28;20523;-65
2023/02/16 07:19:10;;;;;;;15.50;12.00;;;2.00;99.90;;;;;;5006132;28;20179;-65
2023/02/16 07:21:35;;;;;;;12.80;10.60;;;2.50;99.90;;;;;;5007260;28;20570;-65
2023/02/16 07:24:01;;;;;;;13.57;11.00;;;2.40;99.90;;;;;;5005130;28;20219;-65
2023/02/16 07:26:27;;;;;;;13.50;10.93;;;2.30;99.90;;;;;;5007929;28;20214;-65
2023/02/16 07:28:52;;;;;;;34.73;13.70;;;2.50;99.90;;;;;;5009250;28;20656;-63
2023/02/16 07:31:18;;;;;;;26.83;13.60;;;2.50;99.90;;;;;;5002518;28;20179;-63
2023/02/16 07:33:44;;;;;;;19.33;11.83;;;2.00;99.90;;;;;;5010276;28;20249;-66
2023/02/16 07:36:11;;;;;;;21.13;11.50;;;2.40;99.90;;;;;;5012638;28;20263;-64
2023/02/16 07:38:40;;;;;;;20.98;14.63;;;2.80;99.90;;;;;;5008693;28;20449;-65
2023/02/16 07:41:06;;;;;;;18.75;12.38;;;2.80;99.90;;;;;;5013930;28;20187;-64
2023/02/16 07:43:33;;;;;;;14.03;10.93;;;3.20;99.90;;;;;;5019230;28;20275;-67
2023/02/16 07:45:59;;;;;;;15.50;11.52;;;3.40;99.90;;;;;;5008659;28;20453;-67
2023/02/16 07:48:24;;;;;;;16.27;10.90;;;3.20;99.90;;;;;;5014699;28;20633;-66
2023/02/16 07:50:50;;;;;;;15.63;11.07;;;3.10;99.90;;;;;;5014244;28;20656;-65
2023/02/16 07:53:15;;;;;;;13.93;11.07;;;2.90;99.90;;;;;;5008361;28;20211;-66
2023/02/16 07:55:43;;;;;;;16.57;12.00;;;3.80;99.90;;;;;;5012657;28;20293;-66
2023/02/16 07:58:08;;;;;;;19.17;14.15;;;4.00;99.90;;;;;;5008685;28;20199;-64
2023/02/16 08:00:34;;;;;;;16.80;11.77;;;3.70;99.90;;;;;;5012127;28;20191;-64
2023/02/16 08:03:00;;;;;;;18.77;11.63;;;4.30;99.90;;;;;;5012636;28;20274;-65
2023/02/16 08:05:25;;;;;;;13.60;12.17;;;3.70;99.90;;;;;;5016296;28;20519;-65
2023/02/16 08:07:51;;;;;;;15.40;12.03;;;3.70;99.90;;;;;;5005874;28;20217;-66
2023/02/16 08:10:17;;;;;;;21.07;15.87;;;4.90;99.90;;;;;;5007506;28;20199;-64
2023/02/16 08:12:43;;;;;;;16.80;12.63;;;4.60;99.90;;;;;;5013530;28;20224;-65
2023/02/16 08:15:09;;;;;;;14.67;12.87;;;4.10;99.90;;;;;;5009831;28;20189;-65
2023/02/16 08:17:35;;;;;;;15.20;12.70;;;4.00;99.90;;;;;;5011274;28;21059;-65
2023/02/16 08:20:02;;;;;;;15.70;12.67;;;4.80;99.90;;;;;;5006778;28;20273;-65
2023/02/16 08:22:28;;;;;;;15.40;13.30;;;4.60;99.90;;;;;;5016939;28;20478;-66
2023/02/16 08:24:53;;;;;;;17.73;12.90;;;4.30;99.90;;;;;;5011496;28;20232;-65
2023/02/16 08:27:20;;;;;;;14.40;12.60;;;4.70;99.90;;;;;;5013336;28;20481;-67
2023/02/16 08:29:45;;;;;;;18.80;13.50;;;4.90;99.90;;;;;;5011348;28;20183;-67
2023/02/16 08:32:12;;;;;;;14.73;11.83;;;4.80;99.90;;;;;;5013605;28;20184;-67
2023/02/16 08:34:38;;;;;;;15.35;12.38;;;5.80;99.90;;;;;;5011169;28;20208;-68
2023/02/16 08:37:03;;;;;;;17.93;13.10;;;5.80;99.90;;;;;;5011529;28;20646;-65
2023/02/16 08:39:31;;;;;;;15.53;13.30;;;5.20;99.90;;;;;;5013609;28;20475;-62
2023/02/16 08:41:58;;;;;;;17.85;12.88;;;5.90;99.90;;;;;;4998837;28;20181;-63
2023/02/16 08:44:24;;;;;;;17.70;12.63;;;5.60;99.90;;;;;;5005085;28;20194;-63
2023/02/16 08:46:53;;;;;;;18.23;12.77;;;5.80;99.90;;;;;;5006690;28;20214;-63
2023/02/16 08:49:20;;;;;;;16.85;13.10;;;5.90;99.90;;;;;;5004713;28;20681;-63
2023/02/16 08:51:53;;;;;;;16.38;13.20;;;6.20;99.90;;;;;;5010239;28;20199;-63
2023/02/16 08:54:23;;;;;;;13.15;11.77;;;6.00;99.90;;;;;;5012903;28;20206;-65
2023/02/16 08:56:49;;;;;;;17.92;14.30;;;6.20;99.90;;;;;;5010463;28;20199;-65
2023/02/16 08:59:16;;;;;;;22.83;17.02;;;5.60;99.90;;;;;;5011521;28;20187;-64
2023/02/16 09:01:42;;;;;;;23.33;15.20;;;6.40;99.90;;;;;;5005767;28;20198;-65
2023/02/16 09:04:08;;;;;;;18.60;14.20;;;6.50;99.90;;;;;;5007251;28;20187;-65
2023/02/16 09:06:39;;;;;;;17.38;13.50;;;7.10;99.90;;;;;;5006955;28;20447;-65
2023/02/16 09:09:05;;;;;;;17.60;13.55;;;9.00;99.90;;;;;;5011816;28;20341;-66
2023/02/16 09:11:31;;;;;;;19.73;14.63;;;10.80;99.90;;;;;;5012293;28;20227;-66
2023/02/16 09:13:57;;;;;;;15.57;13.07;;;12.70;95.10;;;;;;5023899;28;20275;-68
2023/02/16 09:16:23;;;;;;;15.97;13.57;;;14.50;91.30;;;;;;5015531;28;20751;-67
2023/02/16 09:18:49;;;;;;;18.23;15.43;;;15.60;86.60;;;;;;5021673;28;20539;-67
2023/02/16 09:21:21;;;;;;;15.23;13.48;;;16.70;82.00;;;;;;5017021;28;20187;-67
2023/02/16 09:23:48;;;;;;;16.85;15.15;;;17.60;78.10;;;;;;5008857;28;20263;-67
2023/02/16 09:26:15;;;;;;;15.57;13.95;;;18.50;75.50;;;;;;5013679;28;20214;-67
2023/02/16 09:28:42;;;;;;;14.95;13.35;;;19.30;71.30;;;;;;5009344;28;20194;-67
2023/02/16 09:31:24;;;;;;;19.15;14.75;;;19.10;68.60;;;;;;5008471;28;20538;-67
2023/02/16 09:34:00;;;;;;;16.40;14.30;;;18.80;68.70;;;;;;5017626;28;20205;-67
2023/02/16 09:36:26;;;;;;;18.52;15.52;;;19.10;67.00;;;;;;5022383;28;20240;-67
2023/02/16 09:38:52;;;;;;;19.42;15.98;;;19.40;66.40;;;;;;5021544;28;20675;-67
2023/02/16 09:41:31;;;;;;;18.50;16.70;;;19.80;64.90;;;;;;5024520;28;20201;-67
2023/02/16 09:44:20;;;;;;;18.42;16.60;;;18.90;63.70;;;;;;5020762;28;20194;-67
2023/02/16 09:46:47;;;;;;;11.30;9.60;;;18.60;66.20;;;;;;5020101;28;20702;-67
2023/02/16 09:49:33;;;;;;;10.05;8.73;;;17.60;64.50;;;;;;5019190;28;20265;-66
2023/02/16 09:52:12;;;;;;;12.95;8.93;;;17.60;64.60;;;;;;5008441;28;20206;-66
2023/02/16 09:54:54;;;;;;;11.45;7.90;;;18.50;62.00;;;;;;5000903;28;20199;-67
2023/02/16 09:57:43;;;;;;;9.60;8.38;;;18.70;59.50;;;;;;5007584;28;20209;-68
2023/02/16 10:00:37;;;;;;;9.45;8.00;;;19.30;58.60;;;;;;5001801;28;20271;-68
2023/02/16 10:03:17;;;;;;;11.88;8.43;;;19.60;56.50;;;;;;5009169;28;20190;-67
2023/02/16 10:06:20;;;;;;;8.65;7.60;;;20.10;56.10;;;;;;5011325;28;20178;-67
2023/02/16 10:08:52;;;;;;;7.82;7.03;;;18.80;55.50;;;;;;4999916;28;20226;-67
2023/02/16 10:11:47;;;;;;;10.38;7.75;;;18.70;55.70;;;;;;5017037;28;20264;-67
2023/02/16 10:14:32;;;;;;;8.50;7.60;;;19.10;56.30;;;;;;5004514;28;20302;-67
2023/02/16 10:17:12;;;;;;;9.73;7.28;;;19.30;56.00;;;;;;5007126;28;20302;-67
2023/02/16 10:19:53;;;;;;;9.25;8.35;;;18.90;55.40;;;;;;5009274;28;20201;-67
2023/02/16 10:22:27;;;;;;;10.38;8.40;;;19.60;56.00;;;;;;5002618;28;20189;-66
2023/02/16 10:25:09;;;;;;;10.63;7.50;;;18.70;55.70;;;;;;5002453;28;20244;-67
2023/02/16 10:27:41;;;;;;;8.63;6.75;;;18.50;56.00;;;;;;5001022;28;20276;-67
2023/02/16 10:30:19;;;;;;;8.82;7.25;;;18.50;54.70;;;;;;5005290;28;20183;-66
2023/02/16 10:32:48;;;;;;;11.00;7.50;;;17.90;55.20;;;;;;5005823;28;20267;-67
2023/02/16 10:35:19;;;;;;;7.05;6.35;;;17.60;56.50;;;;;;5004256;28;20191;-67
2023/02/16 10:38:19;;;;;;;7.78;6.45;;;17.40;56.30;;;;;;5004738;28;20199;-67
2023/02/16 10:40:56;;;;;;;13.20;6.57;;;18.10;56.10;;;;;;5005746;28;20178;-67
2023/02/16 10:43:43;;;;;;;9.50;6.93;;;18.80;55.40;;;;;;5002872;28;20244;-68
2023/02/16 10:46:15;;;;;;;8.45;7.70;;;19.10;54.90;;;;;;5001353;28;20217;-68
2023/02/16 10:48:40;;;;;;;6.60;6.00;;;20.00;53.10;;;;;;5004801;28;20206;-68
2023/02/16 10:51:15;;;;;;;8.13;7.20;;;20.80;52.20;;;;;;5006099;28;20187;-68
2023/02/16 10:53:51;;;;;;;7.93;7.10;;;20.30;52.00;;;;;;5003741;28;20293;-71
2023/02/16 10:56:22;;;;;;;7.67;6.87;;;21.30;50.40;;;;;;5003143;28;20461;-71
2023/02/16 10:58:49;;;;;;;8.10;6.53;;;22.10;49.40;;;;;;5000267;28;21230;-71
2023/02/16 11:01:20;;;;;;;7.63;6.27;;;22.80;48.30;;;;;;4999496;28;21112;-71
2023/02/16 11:03:51;;;;;;;7.77;7.00;;;21.80;48.20;;;;;;5001199;28;20450;-71
2023/02/16 11:06:17;;;;;;;7.13;6.10;;;21.80;48.60;;;;;;5009619;28;20544;-71
2023/02/16 11:08:56;;;;;;;7.97;6.00;;;22.40;47.60;;;;;;5006497;28;20532;-70
2023/02/16 11:11:25;;;;;;;8.60;6.00;;;22.80;46.50;;;;;;5003471;28;20668;-66
2023/02/16 11:13:58;;;;;;;6.63;6.03;;;22.60;46.70;;;;;;5004189;28;20966;-69
2023/02/16 11:16:25;;;;;;;8.80;6.50;;;22.50;46.60;;;;;;5004213;28;20496;-69
2023/02/16 11:19:05;;;;;;;6.67;5.97;;;22.30;46.80;;;;;;5009612;28;22351;-69
2023/02/16 11:21:43;;;;;;;6.83;6.20;;;22.30;46.90;;;;;;5010305;28;20453;-68
2023/02/16 11:24:13;;;;;;;6.20;5.60;;;21.90;46.90;;;;;;5003791;28;20495;-69
2023/02/16 11:26:38;;;;;;;20.90;8.13;;;22.50;46.50;;;;;;5010044;28;20822;-69
2023/02/16 11:29:17;;;;;;;11.70;7.30;;;22.90;46.20;;;;;;5008150;28;20441;-69
2023/02/16 11:31:43;;;;;;;9.87;6.10;;;22.90;45.30;;;;;;5004380;28;20600;-69
2023/02/16 11:34:09;;;;;;;16.83;6.60;;;22.20;45.40;;;;;;5008846;28;20469;-68
2023/02/16 11:36:38;;;;;;;6.20;4.50;;;21.70;44.70;;;;;;5010615;28;21023;-69
2023/02/16 11:39:12;;;;;;;5.47;4.70;;;21.10;45.40;;;;;;5009720;28;20253;-69
2023/02/16 11:41:44;;;;;;;6.70;5.30;;;21.10;45.90;;;;;;5006818;28;20434;-69
2023/02/16 11:44:40;;;;;;;8.27;5.20;;;21.10;45.70;;;;;;5007468;28;20971;-68
2023/02/16 11:47:19;;;;;;;6.27;4.40;;;21.10;46.20;;;;;;5005026;28;20487;-67
2023/02/16 11:49:45;;;;;;;5.70;4.13;;;21.00;46.00;;;;;;5009259;28;20533;-66
2023/02/16 11:52:36;;;;;;;5.03;4.17;;;20.80;45.80;;;;;;5004916;28;20441;-65
2023/02/16 11:55:03;;;;;;;7.70;5.20;;;20.70;45.60;;;;;;5005085;28;20266;-66
2023/02/16 11:57:37;;;;;;;8.30;4.82;;;20.80;46.60;;;;;;5012844;28;20473;-65
2023/02/16 12:00:17;;;;;;;7.32;6.28;;;20.70;46.90;;;;;;5001651;28;20197;-65
2023/02/16 12:03:07;;;;;;;9.48;8.55;;;20.70;47.70;;;;;;5010790;28;20190;-65
2023/02/16 12:05:54;;;;;;;16.05;10.43;;;20.40;48.30;;;;;;5010156;28;20189;-66
2023/02/16 12:08:36;;;;;;;12.15;9.80;;;20.00;49.20;;;;;;5000007;28;20188;-66
2023/02/16 12:11:25;;;;;;;13.02;9.70;;;19.60;50.40;;;;;;4997779;28;20198;-65
2023/02/16 12:14:21;;;;;;;16.67;10.00;;;19.20;51.20;;;;;;5010623;28;20221;-65
2023/02/16 12:17:03;;;;;;;18.27;9.52;;;18.80;51.90;;;;;;5009624;28;20641;-65
2023/02/16 12:19:46;;;;;;;12.60;9.95;;;19.00;53.10;;;;;;5011125;28;20679;-65
2023/02/16 12:22:25;;;;;;;10.63;8.75;;;19.10;51.60;;;;;;5009902;28;20633;-66
2023/02/16 12:25:21;;;;;;;10.80;8.70;;;18.90;51.90;;;;;;5010090;28;20670;-65
2023/02/16 12:28:00;;;;;;;16.50;12.80;;;18.60;52.10;;;;;;5010211;28;20214;-66
2023/02/16 12:30:59;;;;;;;12.05;8.75;;;18.40;52.80;;;;;;5007200;28;20188;-65
2023/02/16 12:34:05;;;;;;;10.48;8.35;;;18.40;53.50;;;;;;5008190;28;20229;-65
2023/02/16 12:36:45;;;;;;;11.27;9.32;;;18.00;53.40;;;;;;5009740;28;20207;-65
2023/02/16 12:39:16;;;;;;;12.38;8.98;;;17.50;54.70;;;;;;5009969;28;20232;-66
2023/02/16 12:41:50;;;;;;;11.25;8.75;;;17.80;54.40;;;;;;5010150;28;20252;-65
2023/02/16 12:44:44;;;;;;;10.45;8.07;;;17.90;54.30;;;;;;5010267;28;20262;-65
2023/02/16 12:47:18;;;;;;;10.95;8.63;;;17.80;54.20;;;;;;5002769;28;20213;-65
2023/02/16 12:49:58;;;;;;;12.10;8.00;;;17.70;54.40;;;;;;5010239;28;20620;-65
2023/02/16 12:52:34;;;;;;;15.18;9.20;;;17.50;54.60;;;;;;5009741;28;20198;-65
2023/02/16 12:55:08;;;;;;;11.75;7.50;;;17.50;55.40;;;;;;5010143;28;20854;-65
2023/02/16 12:57:34;;;;;;;10.93;8.00;;;17.50;55.30;;;;;;5017338;28;20806;-65
2023/02/16 13:00:08;;;;;;;8.98;7.35;;;17.50;54.90;;;;;;5008897;28;20194;-65
2023/02/16 13:02:43;;;;;;;11.75;8.45;;;17.40;54.70;;;;;;5009931;28;20189;-65
2023/02/16 13:05:24;;;;;;;12.40;8.30;;;17.50;55.10;;;;;;5009960;28;20240;-65
2023/02/16 13:08:00;;;;;;;12.07;8.15;;;17.50;55.20;;;;;;5002460;28;20210;-66
2023/02/16 13:10:44;;;;;;;11.70;7.38;;;17.20;55.10;;;;;;4996977;28;20194;-69
2023/02/16 13:13:16;;;;;;;10.43;8.13;;;17.20;54.70;;;;;;5004193;28;20203;-68
2023/02/16 13:15:51;;;;;;;12.30;7.25;;;17.30;55.50;;;;;;5007619;28;20618;-69
2023/02/16 13:18:34;;;;;;;17.67;9.00;;;17.10;55.30;;;;;;5009905;28;20568;-71
2023/02/16 13:21:21;;;;;;;9.60;7.15;;;17.10;57.50;;;;;;5003170;28;20611;-69
2023/02/16 13:24:15;;;;;;;12.80;7.40;;;16.70;56.00;;;;;;5006285;28;20229;-66
2023/02/16 13:26:59;;;;;;;15.32;8.40;;;17.20;57.10;;;;;;5006643;28;20217;-67
2023/02/16 13:29:44;;;;;;;9.25;7.93;;;16.80;56.80;;;;;;5007788;28;20827;-67
2023/02/16 13:32:27;;;;;;;10.45;7.15;;;16.80;56.90;;;;;;5006850;28;20253;-67
2023/02/16 13:35:19;;;;;;;9.00;7.18;;;16.70;56.80;;;;;;4997618;28;20282;-66
2023/02/16 13:38:00;;;;;;;10.48;7.50;;;16.50;57.00;;;;;;5016884;28;20211;-66
2023/02/16 13:40:56;;;;;;;7.88;6.72;;;16.30;57.10;;;;;;5008342;28;20198;-66
2023/02/16 13:43:51;;;;;;;10.55;7.85;;;16.40;57.50;;;;;;5009432;28;20222;-66